sensor_id;sensor_type;location;lat;lon;timestamp;P1;durP1;ratioP1;P2;durP2;ratioP2
20559;SDS011;10438;51.454;6.718;2022-08-14T00:01:06;9.88;;;4.80;;
20559;SDS011;10438;51.454;6.718;2022-08-14T00:03:32;6.35;;;4.40;;
20559;SDS011;10438;51.454;6.718;2022-08-14T00:05:58;8.90;;;4.22;;
20559;SDS011;10438;51.454;6.718;2022-08-14T00:08:25;10.50;;;4.80;;
20559;SDS011;10438;51.454;6.718;2022-08-14T00:10:51;12.93;;;4.53;;
20559;SDS011;10438;51.454;6.718;2022-08-14T00:13:18;5.65;;;4.00;;
20559;SDS011;10438;51.454;6.718;2022-08-14T00:15:46;8.63;;;4.28;;
20559;SDS011;10438;51.454;6.718;2022-08-14T00:18:19;8.80;;;4.55;;
20559;SDS011;10438;51.454;6.718;2022-08-14T00:20:46;8.25;;;4.68;;
20559;SDS011;10438;51.454;6.718;2022-08-14T00:23:13;8.32;;;4.93;;
20559;SDS011;10438;51.454;6.718;2022-08-14T00:25:40;10.52;;;4.63;;
20559;SDS011;10438;51.454;6.718;2022-08-14T00:28:07;6.72;;;4.55;;
20559;SDS011;10438;51.454;6.718;2022-08-14T00:30:34;9.00;;;4.65;;
20559;SDS011;10438;51.454;6.718;2022-08-14T00:33:00;12.05;;;4.82;;
20559;SDS011;10438;51.454;6.718;2022-08-14T00:35:26;6.72;;;4.55;;
20559;SDS011;10438;51.454;6.718;2022-08-14T00:37:52;5.45;;;3.75;;
20559;SDS011;10438;51.454;6.718;2022-08-14T00:40:18;7.68;;;4.20;;
20559;SDS011;10438;51.454;6.718;2022-08-14T00:42:45;8.02;;;4.50;;
20559;SDS011;10438;51.454;6.718;2022-08-14T00:45:11;11.80;;;5.15;;
20559;SDS011;10438;51.454;6.718;2022-08-14T00:47:39;7.15;;;4.30;;
20559;SDS011;10438;51.454;6.718;2022-08-14T00:50:06;8.98;;;4.30;;
20559;SDS011;10438;51.454;6.718;2022-08-14T00:52:34;7.95;;;4.63;;
20559;SDS011;10438;51.454;6.718;2022-08-14T00:55:00;10.98;;;5.10;;
20559;SDS011;10438;51.454;6.718;2022-08-14T00:57:27;6.00;;;4.65;;
20559;SDS011;10438;51.454;6.718;2022-08-14T00:59:54;11.82;;;4.80;;
20559;SDS011;10438;51.454;6.718;2022-08-14T01:02:21;17.27;;;4.97;;
20559;SDS011;10438;51.454;6.718;2022-08-14T01:04:48;8.68;;;5.03;;
20559;SDS011;10438;51.454;6.718;2022-08-14T01:07:16;8.35;;;4.30;;
20559;SDS011;10438;51.454;6.718;2022-08-14T01:09:46;9.52;;;4.80;;
20559;SDS011;10438;51.454;6.718;2022-08-14T01:12:17;8.40;;;4.72;;
20559;SDS011;10438;51.454;6.718;2022-08-14T01:14:44;7.50;;;4.60;;
20559;SDS011;10438;51.454;6.718;2022-08-14T01:17:10;8.00;;;4.95;;
20559;SDS011;10438;51.454;6.718;2022-08-14T01:19:36;11.85;;;4.88;;
20559;SDS011;10438;51.454;6.718;2022-08-14T01:22:20;11.13;;;5.20;;
20559;SDS011;10438;51.454;6.718;2022-08-14T01:24:46;11.48;;;4.82;;
20559;SDS011;10438;51.454;6.718;2022-08-14T01:27:15;6.93;;;4.25;;
20559;SDS011;10438;51.454;6.718;2022-08-14T01:29:44;10.35;;;5.13;;
20559;SDS011;10438;51.454;6.718;2022-08-14T01:32:11;9.48;;;4.55;;
20559;SDS011;10438;51.454;6.718;2022-08-14T01:34:37;7.65;;;4.82;;
20559;SDS011;10438;51.454;6.718;2022-08-14T01:37:03;8.80;;;5.32;;
20559;SDS011;10438;51.454;6.718;2022-08-14T01:39:28;6.72;;;4.68;;
20559;SDS011;10438;51.454;6.718;2022-08-14T01:41:54;10.90;;;5.07;;
20559;SDS011;10438;51.454;6.718;2022-08-14T01:44:24;8.45;;;5.45;;
20559;SDS011;10438;51.454;6.718;2022-08-14T01:46:56;10.30;;;5.68;;
20559;SDS011;10438;51.454;6.718;2022-08-14T01:49:23;9.55;;;5.38;;
20559;SDS011;10438;51.454;6.718;2022-08-14T01:51:50;5.75;;;4.22;;
20559;SDS011;10438;51.454;6.718;2022-08-14T01:54:20;6.53;;;4.28;;
20559;SDS011;10438;51.454;6.718;2022-08-14T01:56:49;10.80;;;4.78;;
20559;SDS011;10438;51.454;6.718;2022-08-14T02:01:47;9.45;;;5.10;;
20559;SDS011;10438;51.454;6.718;2022-08-14T02:04:15;9.95;;;5.18;;
20559;SDS011;10438;51.454;6.718;2022-08-14T02:06:44;7.78;;;4.60;;
20559;SDS011;10438;51.454;6.718;2022-08-14T02:09:10;9.48;;;4.97;;
20559;SDS011;10438;51.454;6.718;2022-08-14T02:11:36;11.77;;;4.75;;
20559;SDS011;10438;51.454;6.718;2022-08-14T02:14:03;10.70;;;5.05;;
20559;SDS011;10438;51.454;6.718;2022-08-14T02:16:32;12.27;;;5.05;;
20559;SDS011;10438;51.454;6.718;2022-08-14T02:19:01;9.13;;;5.43;;
20559;SDS011;10438;51.454;6.718;2022-08-14T02:21:30;10.35;;;4.90;;
20559;SDS011;10438;51.454;6.718;2022-08-14T02:23:57;9.15;;;5.28;;
20559;SDS011;10438;51.454;6.718;2022-08-14T02:26:25;8.80;;;5.13;;
20559;SDS011;10438;51.454;6.718;2022-08-14T02:28:54;9.20;;;5.13;;
20559;SDS011;10438;51.454;6.718;2022-08-14T02:31:24;9.65;;;4.90;;
20559;SDS011;10438;51.454;6.718;2022-08-14T02:33:56;7.53;;;4.47;;
20559;SDS011;10438;51.454;6.718;2022-08-14T02:36:29;12.75;;;5.00;;
20559;SDS011;10438;51.454;6.718;2022-08-14T02:38:55;10.77;;;5.43;;
20559;SDS011;10438;51.454;6.718;2022-08-14T02:41:22;7.72;;;5.18;;
20559;SDS011;10438;51.454;6.718;2022-08-14T02:43:49;12.65;;;5.93;;
20559;SDS011;10438;51.454;6.718;2022-08-14T02:46:15;8.55;;;5.28;;
20559;SDS011;10438;51.454;6.718;2022-08-14T02:48:41;7.88;;;5.05;;
20559;SDS011;10438;51.454;6.718;2022-08-14T02:51:11;7.82;;;5.20;;
20559;SDS011;10438;51.454;6.718;2022-08-14T02:53:38;6.97;;;5.35;;
20559;SDS011;10438;51.454;6.718;2022-08-14T02:56:07;8.13;;;5.55;;
20559;SDS011;10438;51.454;6.718;2022-08-14T02:58:36;8.25;;;5.28;;
20559;SDS011;10438;51.454;6.718;2022-08-14T03:01:07;9.45;;;5.38;;
20559;SDS011;10438;51.454;6.718;2022-08-14T03:03:34;10.35;;;5.57;;
20559;SDS011;10438;51.454;6.718;2022-08-14T03:06:01;7.45;;;5.00;;
20559;SDS011;10438;51.454;6.718;2022-08-14T03:08:28;8.75;;;5.10;;
20559;SDS011;10438;51.454;6.718;2022-08-14T03:10:58;7.93;;;5.18;;
20559;SDS011;10438;51.454;6.718;2022-08-14T03:13:25;7.88;;;5.70;;
20559;SDS011;10438;51.454;6.718;2022-08-14T03:15:52;8.32;;;5.80;;
20559;SDS011;10438;51.454;6.718;2022-08-14T03:18:19;12.45;;;5.35;;
20559;SDS011;10438;51.454;6.718;2022-08-14T03:20:47;8.35;;;5.40;;
20559;SDS011;10438;51.454;6.718;2022-08-14T03:23:13;7.30;;;5.30;;
20559;SDS011;10438;51.454;6.718;2022-08-14T03:25:39;11.05;;;5.53;;
20559;SDS011;10438;51.454;6.718;2022-08-14T03:28:05;7.97;;;5.18;;
20559;SDS011;10438;51.454;6.718;2022-08-14T03:30:32;13.90;;;5.88;;
20559;SDS011;10438;51.454;6.718;2022-08-14T03:32:59;12.82;;;6.45;;
20559;SDS011;10438;51.454;6.718;2022-08-14T03:35:25;8.63;;;5.38;;
20559;SDS011;10438;51.454;6.718;2022-08-14T03:37:52;8.23;;;5.53;;
20559;SDS011;10438;51.454;6.718;2022-08-14T03:40:18;8.90;;;5.88;;
20559;SDS011;10438;51.454;6.718;2022-08-14T03:42:45;9.25;;;6.15;;
20559;SDS011;10438;51.454;6.718;2022-08-14T03:45:10;9.88;;;6.60;;
20559;SDS011;10438;51.454;6.718;2022-08-14T03:47:36;10.02;;;5.95;;
20559;SDS011;10438;51.454;6.718;2022-08-14T03:50:05;8.32;;;5.70;;
20559;SDS011;10438;51.454;6.718;2022-08-14T03:52:33;9.35;;;6.28;;
20559;SDS011;10438;51.454;6.718;2022-08-14T03:54:59;14.57;;;6.20;;
20559;SDS011;10438;51.454;6.718;2022-08-14T03:57:27;8.60;;;6.28;;
20559;SDS011;10438;51.454;6.718;2022-08-14T03:59:56;9.23;;;6.20;;
20559;SDS011;10438;51.454;6.718;2022-08-14T04:02:21;12.32;;;6.20;;
20559;SDS011;10438;51.454;6.718;2022-08-14T04:04:48;8.63;;;5.90;;
20559;SDS011;10438;51.454;6.718;2022-08-14T04:07:14;10.98;;;6.55;;
20559;SDS011;10438;51.454;6.718;2022-08-14T04:09:41;10.23;;;6.35;;
20559;SDS011;10438;51.454;6.718;2022-08-14T04:12:06;10.70;;;6.40;;
20559;SDS011;10438;51.454;6.718;2022-08-14T04:14:32;9.43;;;6.53;;
20559;SDS011;10438;51.454;6.718;2022-08-14T04:16:58;9.95;;;6.53;;
20559;SDS011;10438;51.454;6.718;2022-08-14T04:19:23;11.25;;;6.45;;
20559;SDS011;10438;51.454;6.718;2022-08-14T04:21:49;9.20;;;6.65;;
20559;SDS011;10438;51.454;6.718;2022-08-14T04:24:15;10.88;;;7.00;;
20559;SDS011;10438;51.454;6.718;2022-08-14T04:26:41;11.75;;;6.47;;
20559;SDS011;10438;51.454;6.718;2022-08-14T04:29:09;10.82;;;6.32;;
20559;SDS011;10438;51.454;6.718;2022-08-14T04:31:38;11.45;;;6.70;;
20559;SDS011;10438;51.454;6.718;2022-08-14T04:34:04;12.38;;;6.15;;
20559;SDS011;10438;51.454;6.718;2022-08-14T04:36:31;9.02;;;5.88;;
20559;SDS011;10438;51.454;6.718;2022-08-14T04:39:17;10.23;;;7.13;;
20559;SDS011;10438;51.454;6.718;2022-08-14T04:42:01;13.18;;;6.45;;
20559;SDS011;10438;51.454;6.718;2022-08-14T04:44:45;9.75;;;6.95;;
20559;SDS011;10438;51.454;6.718;2022-08-14T04:47:10;12.57;;;8.07;;
20559;SDS011;10438;51.454;6.718;2022-08-14T04:49:54;10.25;;;7.40;;
20559;SDS011;10438;51.454;6.718;2022-08-14T04:52:20;11.18;;;6.57;;
20559;SDS011;10438;51.454;6.718;2022-08-14T04:54:45;11.13;;;7.28;;
20559;SDS011;10438;51.454;6.718;2022-08-14T04:57:11;13.70;;;7.38;;
20559;SDS011;10438;51.454;6.718;2022-08-14T04:59:37;10.70;;;7.05;;
20559;SDS011;10438;51.454;6.718;2022-08-14T05:02:02;10.60;;;7.18;;
20559;SDS011;10438;51.454;6.718;2022-08-14T05:04:28;12.77;;;6.97;;
20559;SDS011;10438;51.454;6.718;2022-08-14T05:06:53;11.68;;;7.18;;
20559;SDS011;10438;51.454;6.718;2022-08-14T05:09:19;11.95;;;7.85;;
20559;SDS011;10438;51.454;6.718;2022-08-14T05:11:45;11.25;;;7.43;;
20559;SDS011;10438;51.454;6.718;2022-08-14T05:14:11;11.77;;;6.90;;
20559;SDS011;10438;51.454;6.718;2022-08-14T05:16:37;14.93;;;7.85;;
20559;SDS011;10438;51.454;6.718;2022-08-14T05:19:02;12.00;;;7.75;;
20559;SDS011;10438;51.454;6.718;2022-08-14T05:21:28;12.70;;;7.50;;
20559;SDS011;10438;51.454;6.718;2022-08-14T05:23:54;11.25;;;7.93;;
20559;SDS011;10438;51.454;6.718;2022-08-14T05:26:20;12.43;;;7.78;;
20559;SDS011;10438;51.454;6.718;2022-08-14T05:28:46;10.93;;;7.93;;
20559;SDS011;10438;51.454;6.718;2022-08-14T05:31:12;11.65;;;7.95;;
20559;SDS011;10438;51.454;6.718;2022-08-14T05:33:43;12.60;;;7.43;;
20559;SDS011;10438;51.454;6.718;2022-08-14T05:36:10;10.52;;;8.13;;
20559;SDS011;10438;51.454;6.718;2022-08-14T05:38:38;12.55;;;7.93;;
20559;SDS011;10438;51.454;6.718;2022-08-14T05:41:07;15.38;;;8.93;;
20559;SDS011;10438;51.454;6.718;2022-08-14T05:43:37;14.57;;;8.35;;
20559;SDS011;10438;51.454;6.718;2022-08-14T05:46:04;10.25;;;7.78;;
20559;SDS011;10438;51.454;6.718;2022-08-14T05:48:29;10.43;;;8.23;;
20559;SDS011;10438;51.454;6.718;2022-08-14T05:50:55;11.88;;;8.30;;
20559;SDS011;10438;51.454;6.718;2022-08-14T05:53:21;11.18;;;7.80;;
20559;SDS011;10438;51.454;6.718;2022-08-14T05:55:48;12.93;;;7.50;;
20559;SDS011;10438;51.454;6.718;2022-08-14T05:58:14;9.95;;;7.40;;
20559;SDS011;10438;51.454;6.718;2022-08-14T06:00:41;10.50;;;7.10;;
20559;SDS011;10438;51.454;6.718;2022-08-14T06:03:09;17.63;;;7.68;;
20559;SDS011;10438;51.454;6.718;2022-08-14T06:05:38;12.68;;;7.30;;
20559;SDS011;10438;51.454;6.718;2022-08-14T06:08:04;10.70;;;7.18;;
20559;SDS011;10438;51.454;6.718;2022-08-14T06:10:41;9.88;;;7.90;;
20559;SDS011;10438;51.454;6.718;2022-08-14T06:13:06;10.85;;;7.85;;
20559;SDS011;10438;51.454;6.718;2022-08-14T06:15:32;13.73;;;7.70;;
20559;SDS011;10438;51.454;6.718;2022-08-14T06:17:58;10.48;;;7.60;;
20559;SDS011;10438;51.454;6.718;2022-08-14T06:20:23;14.15;;;6.82;;
20559;SDS011;10438;51.454;6.718;2022-08-14T06:22:49;9.52;;;7.50;;
20559;SDS011;10438;51.454;6.718;2022-08-14T06:25:15;12.02;;;7.88;;
20559;SDS011;10438;51.454;6.718;2022-08-14T06:27:42;10.50;;;7.35;;
20559;SDS011;10438;51.454;6.718;2022-08-14T06:30:10;9.88;;;7.30;;
20559;SDS011;10438;51.454;6.718;2022-08-14T06:32:46;13.20;;;7.78;;
20559;SDS011;10438;51.454;6.718;2022-08-14T06:35:12;11.88;;;7.43;;
20559;SDS011;10438;51.454;6.718;2022-08-14T06:37:42;17.40;;;7.57;;
20559;SDS011;10438;51.454;6.718;2022-08-14T06:40:10;10.95;;;8.23;;
20559;SDS011;10438;51.454;6.718;2022-08-14T06:42:40;13.32;;;7.30;;
20559;SDS011;10438;51.454;6.718;2022-08-14T06:45:06;9.25;;;8.10;;
20559;SDS011;10438;51.454;6.718;2022-08-14T06:47:33;11.80;;;8.52;;
20559;SDS011;10438;51.454;6.718;2022-08-14T06:49:59;10.32;;;7.97;;
20559;SDS011;10438;51.454;6.718;2022-08-14T06:52:25;10.32;;;7.57;;
20559;SDS011;10438;51.454;6.718;2022-08-14T06:54:51;11.25;;;7.82;;
20559;SDS011;10438;51.454;6.718;2022-08-14T06:57:17;8.75;;;7.05;;
20559;SDS011;10438;51.454;6.718;2022-08-14T06:59:43;13.63;;;8.18;;
20559;SDS011;10438;51.454;6.718;2022-08-14T07:02:08;12.05;;;8.68;;
20559;SDS011;10438;51.454;6.718;2022-08-14T07:04:52;10.63;;;7.50;;
20559;SDS011;10438;51.454;6.718;2022-08-14T07:07:37;8.45;;;7.28;;
20559;SDS011;10438;51.454;6.718;2022-08-14T07:10:03;8.93;;;7.28;;
20559;SDS011;10438;51.454;6.718;2022-08-14T07:12:29;11.32;;;7.55;;
20559;SDS011;10438;51.454;6.718;2022-08-14T07:14:56;10.52;;;7.15;;
20559;SDS011;10438;51.454;6.718;2022-08-14T07:17:21;12.98;;;7.47;;
20559;SDS011;10438;51.454;6.718;2022-08-14T07:19:47;9.30;;;7.65;;
20559;SDS011;10438;51.454;6.718;2022-08-14T07:22:12;9.48;;;6.85;;
20559;SDS011;10438;51.454;6.718;2022-08-14T07:24:38;10.63;;;7.03;;
20559;SDS011;10438;51.454;6.718;2022-08-14T07:27:04;8.45;;;6.80;;
20559;SDS011;10438;51.454;6.718;2022-08-14T07:29:29;16.20;;;7.13;;
20559;SDS011;10438;51.454;6.718;2022-08-14T07:31:55;10.70;;;7.15;;
20559;SDS011;10438;51.454;6.718;2022-08-14T07:34:21;10.10;;;7.03;;
20559;SDS011;10438;51.454;6.718;2022-08-14T07:36:46;9.68;;;7.00;;
20559;SDS011;10438;51.454;6.718;2022-08-14T07:39:12;13.13;;;7.32;;
20559;SDS011;10438;51.454;6.718;2022-08-14T07:41:38;9.05;;;6.90;;
20559;SDS011;10438;51.454;6.718;2022-08-14T07:44:04;8.20;;;6.80;;
20559;SDS011;10438;51.454;6.718;2022-08-14T07:46:29;9.25;;;7.38;;
20559;SDS011;10438;51.454;6.718;2022-08-14T07:48:55;14.32;;;7.43;;
20559;SDS011;10438;51.454;6.718;2022-08-14T07:51:22;9.70;;;6.53;;
20559;SDS011;10438;51.454;6.718;2022-08-14T07:53:47;7.95;;;6.03;;
20559;SDS011;10438;51.454;6.718;2022-08-14T07:56:15;8.95;;;7.25;;
20559;SDS011;10438;51.454;6.718;2022-08-14T07:58:41;10.00;;;6.63;;
20559;SDS011;10438;51.454;6.718;2022-08-14T08:01:06;9.35;;;6.70;;
20559;SDS011;10438;51.454;6.718;2022-08-14T08:03:33;10.38;;;7.88;;
20559;SDS011;10438;51.454;6.718;2022-08-14T08:05:59;9.23;;;7.05;;
20559;SDS011;10438;51.454;6.718;2022-08-14T08:08:26;9.32;;;7.35;;
20559;SDS011;10438;51.454;6.718;2022-08-14T08:10:57;9.05;;;6.68;;
20559;SDS011;10438;51.454;6.718;2022-08-14T08:13:23;10.65;;;7.40;;
20559;SDS011;10438;51.454;6.718;2022-08-14T08:15:51;11.18;;;7.53;;
20559;SDS011;10438;51.454;6.718;2022-08-14T08:18:20;10.35;;;6.85;;
20559;SDS011;10438;51.454;6.718;2022-08-14T08:20:47;8.43;;;6.43;;
20559;SDS011;10438;51.454;6.718;2022-08-14T08:23:14;8.57;;;6.57;;
20559;SDS011;10438;51.454;6.718;2022-08-14T08:25:41;8.20;;;6.57;;
20559;SDS011;10438;51.454;6.718;2022-08-14T08:28:10;8.48;;;6.72;;
20559;SDS011;10438;51.454;6.718;2022-08-14T08:30:39;8.82;;;6.47;;
20559;SDS011;10438;51.454;6.718;2022-08-14T08:33:07;8.18;;;6.35;;
20559;SDS011;10438;51.454;6.718;2022-08-14T08:35:38;9.00;;;6.68;;
20559;SDS011;10438;51.454;6.718;2022-08-14T08:38:05;10.32;;;6.65;;
20559;SDS011;10438;51.454;6.718;2022-08-14T08:40:33;9.30;;;6.53;;
20559;SDS011;10438;51.454;6.718;2022-08-14T08:43:01;8.70;;;6.80;;
20559;SDS011;10438;51.454;6.718;2022-08-14T08:45:28;10.05;;;6.18;;
20559;SDS011;10438;51.454;6.718;2022-08-14T08:47:53;8.18;;;6.95;;
20559;SDS011;10438;51.454;6.718;2022-08-14T08:50:21;7.28;;;5.93;;
20559;SDS011;10438;51.454;6.718;2022-08-14T08:52:53;9.07;;;6.90;;
20559;SDS011;10438;51.454;6.718;2022-08-14T08:55:27;12.88;;;6.38;;
20559;SDS011;10438;51.454;6.718;2022-08-14T08:57:57;9.93;;;7.18;;
20559;SDS011;10438;51.454;6.718;2022-08-14T09:00:24;11.75;;;7.00;;
20559;SDS011;10438;51.454;6.718;2022-08-14T09:02:59;9.02;;;6.07;;
20559;SDS011;10438;51.454;6.718;2022-08-14T09:05:32;9.35;;;6.47;;
20559;SDS011;10438;51.454;6.718;2022-08-14T09:11:05;6.88;;;6.00;;
20559;SDS011;10438;51.454;6.718;2022-08-14T09:13:36;13.38;;;6.63;;
20559;SDS011;10438;51.454;6.718;2022-08-14T09:16:01;11.15;;;7.03;;
20559;SDS011;10438;51.454;6.718;2022-08-14T09:18:27;11.75;;;6.50;;
20559;SDS011;10438;51.454;6.718;2022-08-14T09:20:55;9.85;;;6.30;;
20559;SDS011;10438;51.454;6.718;2022-08-14T09:23:21;10.63;;;6.50;;
20559;SDS011;10438;51.454;6.718;2022-08-14T09:25:48;13.40;;;6.07;;
20559;SDS011;10438;51.454;6.718;2022-08-14T09:28:15;8.32;;;5.82;;
20559;SDS011;10438;51.454;6.718;2022-08-14T09:30:51;8.25;;;6.15;;
20559;SDS011;10438;51.454;6.718;2022-08-14T09:34:06;11.10;;;5.95;;
20559;SDS011;10438;51.454;6.718;2022-08-14T09:36:24;8.05;;;6.43;;
20559;SDS011;10438;51.454;6.718;2022-08-14T09:42:02;10.23;;;6.38;;
20559;SDS011;10438;51.454;6.718;2022-08-14T09:45:05;9.68;;;6.63;;
20559;SDS011;10438;51.454;6.718;2022-08-14T09:47:50;8.70;;;6.50;;
20559;SDS011;10438;51.454;6.718;2022-08-14T09:52:48;12.00;;;5.88;;
20559;SDS011;10438;51.454;6.718;2022-08-14T09:55:27;7.85;;;6.35;;
20559;SDS011;10438;51.454;6.718;2022-08-14T10:00:43;12.63;;;5.93;;
20559;SDS011;10438;51.454;6.718;2022-08-14T10:03:29;8.73;;;5.78;;
20559;SDS011;10438;51.454;6.718;2022-08-14T10:06:04;6.50;;;5.28;;
20559;SDS011;10438;51.454;6.718;2022-08-14T10:08:57;7.05;;;4.72;;
20559;SDS011;10438;51.454;6.718;2022-08-14T10:11:29;6.68;;;4.85;;
20559;SDS011;10438;51.454;6.718;2022-08-14T10:14:16;5.50;;;4.70;;
20559;SDS011;10438;51.454;6.718;2022-08-14T10:16:49;7.32;;;4.57;;
20559;SDS011;10438;51.454;6.718;2022-08-14T10:19:18;6.75;;;4.95;;
20559;SDS011;10438;51.454;6.718;2022-08-14T10:22:04;11.68;;;4.90;;
20559;SDS011;10438;51.454;6.718;2022-08-14T10:24:37;7.25;;;4.93;;
20559;SDS011;10438;51.454;6.718;2022-08-14T10:27:15;9.23;;;5.10;;
20559;SDS011;10438;51.454;6.718;2022-08-14T10:29:48;11.07;;;5.63;;
20559;SDS011;10438;51.454;6.718;2022-08-14T10:32:25;6.72;;;5.07;;
20559;SDS011;10438;51.454;6.718;2022-08-14T10:35:02;6.53;;;5.15;;
20559;SDS011;10438;51.454;6.718;2022-08-14T10:37:35;7.40;;;4.85;;
20559;SDS011;10438;51.454;6.718;2022-08-14T10:40:13;6.32;;;5.03;;
20559;SDS011;10438;51.454;6.718;2022-08-14T10:42:41;6.72;;;4.60;;
20559;SDS011;10438;51.454;6.718;2022-08-14T10:45:24;7.03;;;5.00;;
20559;SDS011;10438;51.454;6.718;2022-08-14T10:47:57;6.13;;;4.57;;
20559;SDS011;10438;51.454;6.718;2022-08-14T10:50:30;7.00;;;5.03;;
20559;SDS011;10438;51.454;6.718;2022-08-14T10:52:58;9.20;;;4.93;;
20559;SDS011;10438;51.454;6.718;2022-08-14T10:55:30;9.52;;;5.28;;
20559;SDS011;10438;51.454;6.718;2022-08-14T10:57:57;7.63;;;5.18;;
20559;SDS011;10438;51.454;6.718;2022-08-14T11:00:24;7.13;;;4.93;;
20559;SDS011;10438;51.454;6.718;2022-08-14T11:02:56;6.80;;;4.70;;
20559;SDS011;10438;51.454;6.718;2022-08-14T11:05:24;7.95;;;4.72;;
20559;SDS011;10438;51.454;6.718;2022-08-14T11:10:20;6.72;;;4.78;;
20559;SDS011;10438;51.454;6.718;2022-08-14T11:12:48;6.43;;;4.93;;
20559;SDS011;10438;51.454;6.718;2022-08-14T11:15:21;9.27;;;5.25;;
20559;SDS011;10438;51.454;6.718;2022-08-14T11:17:51;7.85;;;4.85;;
20559;SDS011;10438;51.454;6.718;2022-08-14T11:20:19;7.75;;;5.00;;
20559;SDS011;10438;51.454;6.718;2022-08-14T11:22:46;6.10;;;4.55;;
20559;SDS011;10438;51.454;6.718;2022-08-14T11:25:14;7.00;;;4.60;;
20559;SDS011;10438;51.454;6.718;2022-08-14T11:27:41;6.57;;;4.80;;
20559;SDS011;10438;51.454;6.718;2022-08-14T11:30:12;6.13;;;4.30;;
20559;SDS011;10438;51.454;6.718;2022-08-14T11:32:40;5.53;;;4.40;;
20559;SDS011;10438;51.454;6.718;2022-08-14T11:35:12;6.25;;;4.78;;
20559;SDS011;10438;51.454;6.718;2022-08-14T11:37:53;7.28;;;4.82;;
20559;SDS011;10438;51.454;6.718;2022-08-14T11:40:28;9.88;;;4.70;;
20559;SDS011;10438;51.454;6.718;2022-08-14T11:42:56;5.82;;;4.60;;
20559;SDS011;10438;51.454;6.718;2022-08-14T11:45:25;5.93;;;4.50;;
20559;SDS011;10438;51.454;6.718;2022-08-14T11:47:56;6.55;;;4.00;;
20559;SDS011;10438;51.454;6.718;2022-08-14T11:50:23;12.93;;;4.93;;
20559;SDS011;10438;51.454;6.718;2022-08-14T11:52:55;6.63;;;4.55;;
20559;SDS011;10438;51.454;6.718;2022-08-14T11:55:23;7.38;;;4.75;;
20559;SDS011;10438;51.454;6.718;2022-08-14T11:57:57;7.05;;;5.00;;
20559;SDS011;10438;51.454;6.718;2022-08-14T12:00:33;6.53;;;4.80;;
20559;SDS011;10438;51.454;6.718;2022-08-14T12:03:13;9.13;;;4.70;;
20559;SDS011;10438;51.454;6.718;2022-08-14T12:05:39;6.28;;;4.63;;
20559;SDS011;10438;51.454;6.718;2022-08-14T12:08:06;9.27;;;7.13;;
20559;SDS011;10438;51.454;6.718;2022-08-14T12:10:33;9.07;;;5.00;;
20559;SDS011;10438;51.454;6.718;2022-08-14T12:13:10;6.78;;;4.90;;
20559;SDS011;10438;51.454;6.718;2022-08-14T12:15:40;11.02;;;5.65;;
20559;SDS011;10438;51.454;6.718;2022-08-14T12:18:06;8.63;;;6.05;;
20559;SDS011;10438;51.454;6.718;2022-08-14T12:20:33;14.13;;;5.53;;
20559;SDS011;10438;51.454;6.718;2022-08-14T12:23:04;8.43;;;4.88;;
20559;SDS011;10438;51.454;6.718;2022-08-14T12:25:33;8.00;;;4.60;;
20559;SDS011;10438;51.454;6.718;2022-08-14T12:28:00;10.13;;;4.95;;
20559;SDS011;10438;51.454;6.718;2022-08-14T12:30:33;6.25;;;4.80;;
20559;SDS011;10438;51.454;6.718;2022-08-14T12:33:05;9.38;;;4.93;;
20559;SDS011;10438;51.454;6.718;2022-08-14T12:35:45;7.85;;;4.72;;
20559;SDS011;10438;51.454;6.718;2022-08-14T12:38:13;7.97;;;4.82;;
20559;SDS011;10438;51.454;6.718;2022-08-14T12:40:48;6.75;;;5.18;;
20559;SDS011;10438;51.454;6.718;2022-08-14T12:43:17;8.13;;;4.93;;
20559;SDS011;10438;51.454;6.718;2022-08-14T12:45:47;6.90;;;4.90;;
20559;SDS011;10438;51.454;6.718;2022-08-14T12:48:19;11.07;;;5.60;;
20559;SDS011;10438;51.454;6.718;2022-08-14T12:50:46;6.63;;;4.45;;
20559;SDS011;10438;51.454;6.718;2022-08-14T12:53:12;9.25;;;4.68;;
20559;SDS011;10438;51.454;6.718;2022-08-14T12:55:39;5.10;;;4.38;;
20559;SDS011;10438;51.454;6.718;2022-08-14T12:58:06;6.60;;;4.43;;
20559;SDS011;10438;51.454;6.718;2022-08-14T13:00:33;6.00;;;4.25;;
20559;SDS011;10438;51.454;6.718;2022-08-14T13:03:01;5.40;;;4.18;;
20559;SDS011;10438;51.454;6.718;2022-08-14T13:05:30;12.27;;;8.25;;
20559;SDS011;10438;51.454;6.718;2022-08-14T13:07:58;6.38;;;4.45;;
20559;SDS011;10438;51.454;6.718;2022-08-14T13:10:27;7.63;;;4.65;;
20559;SDS011;10438;51.454;6.718;2022-08-14T13:12:57;6.90;;;4.93;;
20559;SDS011;10438;51.454;6.718;2022-08-14T13:15:23;5.82;;;4.60;;
20559;SDS011;10438;51.454;6.718;2022-08-14T13:17:53;6.32;;;4.47;;
20559;SDS011;10438;51.454;6.718;2022-08-14T13:20:24;7.80;;;4.75;;
20559;SDS011;10438;51.454;6.718;2022-08-14T13:22:52;5.93;;;4.43;;
20559;SDS011;10438;51.454;6.718;2022-08-14T13:25:20;5.00;;;4.13;;
20559;SDS011;10438;51.454;6.718;2022-08-14T13:27:50;5.72;;;4.32;;
20559;SDS011;10438;51.454;6.718;2022-08-14T13:30:19;7.85;;;4.60;;
20559;SDS011;10438;51.454;6.718;2022-08-14T13:32:45;7.20;;;4.13;;
20559;SDS011;10438;51.454;6.718;2022-08-14T13:35:12;5.95;;;4.28;;
20559;SDS011;10438;51.454;6.718;2022-08-14T13:37:42;5.95;;;4.18;;
20559;SDS011;10438;51.454;6.718;2022-08-14T13:40:10;4.97;;;3.80;;
20559;SDS011;10438;51.454;6.718;2022-08-14T13:42:38;5.15;;;3.90;;
20559;SDS011;10438;51.454;6.718;2022-08-14T13:45:06;5.38;;;4.50;;
20559;SDS011;10438;51.454;6.718;2022-08-14T13:47:33;5.53;;;4.18;;
20559;SDS011;10438;51.454;6.718;2022-08-14T13:50:01;6.32;;;4.07;;
20559;SDS011;10438;51.454;6.718;2022-08-14T13:52:30;6.32;;;4.45;;
20559;SDS011;10438;51.454;6.718;2022-08-14T13:55:04;6.32;;;4.63;;
20559;SDS011;10438;51.454;6.718;2022-08-14T13:57:31;6.03;;;4.78;;
20559;SDS011;10438;51.454;6.718;2022-08-14T14:00:02;7.53;;;4.65;;
20559;SDS011;10438;51.454;6.718;2022-08-14T14:02:36;6.95;;;4.50;;
20559;SDS011;10438;51.454;6.718;2022-08-14T14:05:03;5.07;;;4.40;;
20559;SDS011;10438;51.454;6.718;2022-08-14T14:07:30;6.75;;;4.40;;
20559;SDS011;10438;51.454;6.718;2022-08-14T14:09:58;6.68;;;4.53;;
20559;SDS011;10438;51.454;6.718;2022-08-14T14:12:26;5.70;;;4.13;;
20559;SDS011;10438;51.454;6.718;2022-08-14T14:14:51;5.07;;;4.07;;
20559;SDS011;10438;51.454;6.718;2022-08-14T14:17:17;5.63;;;3.90;;
20559;SDS011;10438;51.454;6.718;2022-08-14T14:19:48;6.32;;;4.30;;
20559;SDS011;10438;51.454;6.718;2022-08-14T14:22:15;6.75;;;4.38;;
20559;SDS011;10438;51.454;6.718;2022-08-14T14:24:41;6.28;;;3.85;;
20559;SDS011;10438;51.454;6.718;2022-08-14T14:27:09;4.70;;;3.80;;
20559;SDS011;10438;51.454;6.718;2022-08-14T14:29:36;4.90;;;3.90;;
20559;SDS011;10438;51.454;6.718;2022-08-14T14:32:04;6.85;;;3.80;;
20559;SDS011;10438;51.454;6.718;2022-08-14T14:34:31;6.78;;;3.85;;
20559;SDS011;10438;51.454;6.718;2022-08-14T14:36:58;5.97;;;3.92;;
20559;SDS011;10438;51.454;6.718;2022-08-14T14:39:27;7.53;;;3.85;;
20559;SDS011;10438;51.454;6.718;2022-08-14T14:41:55;6.13;;;4.35;;
20559;SDS011;10438;51.454;6.718;2022-08-14T14:44:26;5.57;;;4.53;;
20559;SDS011;10438;51.454;6.718;2022-08-14T14:46:57;5.68;;;4.18;;
20559;SDS011;10438;51.454;6.718;2022-08-14T14:49:24;9.05;;;4.45;;
20559;SDS011;10438;51.454;6.718;2022-08-14T14:51:51;6.88;;;4.63;;
20559;SDS011;10438;51.454;6.718;2022-08-14T14:54:17;6.25;;;4.50;;
20559;SDS011;10438;51.454;6.718;2022-08-14T14:56:46;8.40;;;4.63;;
20559;SDS011;10438;51.454;6.718;2022-08-14T14:59:12;8.27;;;4.35;;
20559;SDS011;10438;51.454;6.718;2022-08-14T15:01:38;5.57;;;4.05;;
20559;SDS011;10438;51.454;6.718;2022-08-14T15:04:04;9.30;;;5.00;;
20559;SDS011;10438;51.454;6.718;2022-08-14T15:06:31;6.72;;;5.30;;
20559;SDS011;10438;51.454;6.718;2022-08-14T15:08:58;7.50;;;4.03;;